sensor_id;sensor_type;location;lat;lon;timestamp;P1;durP1;ratioP1;P2;durP2;ratioP2
53903;SDS011;39812;52.430;16.936;2023-02-15T00:00:04;93.47;;;39.45;;
53903;SDS011;39812;52.430;16.936;2023-02-15T00:02:31;96.20;;;39.70;;
53903;SDS011;39812;52.430;16.936;2023-02-15T00:04:56;96.90;;;38.13;;
53903;SDS011;39812;52.430;16.936;2023-02-15T00:07:22;93.35;;;39.38;;
53903;SDS011;39812;52.430;16.936;2023-02-15T00:09:47;118.88;;;42.28;;
53903;SDS011;39812;52.430;16.936;2023-02-15T00:12:13;104.88;;;40.83;;
53903;SDS011;39812;52.430;16.936;2023-02-15T00:14:40;122.10;;;46.00;;
53903;SDS011;39812;52.430;16.936;2023-02-15T00:17:07;119.93;;;46.80;;
53903;SDS011;39812;52.430;16.936;2023-02-15T00:19:32;110.82;;;42.42;;
53903;SDS011;39812;52.430;16.936;2023-02-15T00:21:58;107.82;;;41.92;;
53903;SDS011;39812;52.430;16.936;2023-02-15T00:24:24;111.65;;;42.00;;
53903;SDS011;39812;52.430;16.936;2023-02-15T00:26:50;106.20;;;41.42;;
53903;SDS011;39812;52.430;16.936;2023-02-15T00:29:16;118.00;;;43.13;;
53903;SDS011;39812;52.430;16.936;2023-02-15T00:31:42;105.45;;;43.25;;
53903;SDS011;39812;52.430;16.936;2023-02-15T00:34:12;108.35;;;41.53;;
53903;SDS011;39812;52.430;16.936;2023-02-15T00:36:40;113.00;;;42.67;;
53903;SDS011;39812;52.430;16.936;2023-02-15T00:39:06;94.07;;;40.03;;
53903;SDS011;39812;52.430;16.936;2023-02-15T00:41:32;102.40;;;41.78;;
53903;SDS011;39812;52.430;16.936;2023-02-15T00:43:58;103.05;;;39.13;;
53903;SDS011;39812;52.430;16.936;2023-02-15T00:46:24;98.20;;;40.20;;
53903;SDS011;39812;52.430;16.936;2023-02-15T00:48:50;103.03;;;40.83;;
53903;SDS011;39812;52.430;16.936;2023-02-15T00:51:16;109.22;;;41.22;;
53903;SDS011;39812;52.430;16.936;2023-02-15T00:53:42;98.28;;;39.05;;
53903;SDS011;39812;52.430;16.936;2023-02-15T00:56:09;104.75;;;39.17;;
53903;SDS011;39812;52.430;16.936;2023-02-15T00:58:35;105.38;;;40.75;;
53903;SDS011;39812;52.430;16.936;2023-02-15T01:01:08;97.47;;;37.80;;
53903;SDS011;39812;52.430;16.936;2023-02-15T01:03:38;102.75;;;38.22;;
53903;SDS011;39812;52.430;16.936;2023-02-15T01:06:06;101.45;;;38.10;;
53903;SDS011;39812;52.430;16.936;2023-02-15T01:08:32;99.35;;;37.90;;
53903;SDS011;39812;52.430;16.936;2023-02-15T01:11:03;94.57;;;39.00;;
53903;SDS011;39812;52.430;16.936;2023-02-15T01:13:30;98.00;;;38.88;;
53903;SDS011;39812;52.430;16.936;2023-02-15T01:15:56;99.53;;;38.42;;
53903;SDS011;39812;52.430;16.936;2023-02-15T01:18:21;94.15;;;37.35;;
53903;SDS011;39812;52.430;16.936;2023-02-15T01:20:47;92.00;;;36.35;;
53903;SDS011;39812;52.430;16.936;2023-02-15T01:23:13;91.47;;;35.25;;
53903;SDS011;39812;52.430;16.936;2023-02-15T01:25:40;89.28;;;36.53;;
53903;SDS011;39812;52.430;16.936;2023-02-15T01:28:06;88.13;;;33.47;;
53903;SDS011;39812;52.430;16.936;2023-02-15T01:30:32;95.50;;;34.95;;
53903;SDS011;39812;52.430;16.936;2023-02-15T01:32:58;92.57;;;34.65;;
53903;SDS011;39812;52.430;16.936;2023-02-15T01:35:25;85.00;;;33.40;;
53903;SDS011;39812;52.430;16.936;2023-02-15T01:37:52;88.75;;;34.00;;
53903;SDS011;39812;52.430;16.936;2023-02-15T01:40:18;85.18;;;35.20;;
53903;SDS011;39812;52.430;16.936;2023-02-15T01:42:44;86.25;;;33.60;;
53903;SDS011;39812;52.430;16.936;2023-02-15T01:47:50;80.78;;;33.20;;
53903;SDS011;39812;52.430;16.936;2023-02-15T01:50:29;94.35;;;33.78;;
53903;SDS011;39812;52.430;16.936;2023-02-15T01:55:40;79.38;;;32.78;;
53903;SDS011;39812;52.430;16.936;2023-02-15T01:58:13;93.00;;;32.65;;
53903;SDS011;39812;52.430;16.936;2023-02-15T02:00:39;83.13;;;35.80;;
53903;SDS011;39812;52.430;16.936;2023-02-15T02:03:05;97.45;;;38.42;;
53903;SDS011;39812;52.430;16.936;2023-02-15T02:05:31;91.30;;;36.63;;
53903;SDS011;39812;52.430;16.936;2023-02-15T02:07:58;100.85;;;36.65;;
53903;SDS011;39812;52.430;16.936;2023-02-15T02:10:26;89.90;;;35.53;;
53903;SDS011;39812;52.430;16.936;2023-02-15T02:12:54;111.03;;;38.85;;
53903;SDS011;39812;52.430;16.936;2023-02-15T02:15:28;109.05;;;39.15;;
53903;SDS011;39812;52.430;16.936;2023-02-15T02:32:49;108.32;;;36.30;;
53903;SDS011;39812;52.430;16.936;2023-02-15T02:38:12;99.10;;;36.33;;
53903;SDS011;39812;52.430;16.936;2023-02-15T02:41:08;95.57;;;36.60;;
53903;SDS011;39812;52.430;16.936;2023-02-15T02:43:52;90.13;;;35.85;;
53903;SDS011;39812;52.430;16.936;2023-02-15T02:46:35;92.97;;;34.03;;
53903;SDS011;39812;52.430;16.936;2023-02-15T02:49:08;99.20;;;36.72;;
53903;SDS011;39812;52.430;16.936;2023-02-15T02:51:34;87.30;;;34.55;;
53903;SDS011;39812;52.430;16.936;2023-02-15T02:54:00;94.03;;;36.20;;
53903;SDS011;39812;52.430;16.936;2023-02-15T02:56:32;96.05;;;34.15;;
53903;SDS011;39812;52.430;16.936;2023-02-15T02:59:05;85.22;;;34.08;;
53903;SDS011;39812;52.430;16.936;2023-02-15T03:01:40;89.65;;;35.67;;
53903;SDS011;39812;52.430;16.936;2023-02-15T03:04:18;80.13;;;31.55;;
53903;SDS011;39812;52.430;16.936;2023-02-15T03:06:54;85.82;;;31.60;;
53903;SDS011;39812;52.430;16.936;2023-02-15T03:09:25;76.88;;;29.63;;
53903;SDS011;39812;52.430;16.936;2023-02-15T03:11:59;83.72;;;31.65;;
53903;SDS011;39812;52.430;16.936;2023-02-15T03:14:28;88.03;;;34.78;;
53903;SDS011;39812;52.430;16.936;2023-02-15T03:16:54;91.90;;;32.13;;
53903;SDS011;39812;52.430;16.936;2023-02-15T03:19:25;83.90;;;32.28;;
53903;SDS011;39812;52.430;16.936;2023-02-15T03:22:00;79.85;;;30.95;;
53903;SDS011;39812;52.430;16.936;2023-02-15T03:27:06;71.55;;;31.02;;
53903;SDS011;39812;52.430;16.936;2023-02-15T03:29:36;81.70;;;30.23;;
53903;SDS011;39812;52.430;16.936;2023-02-15T03:32:03;80.63;;;30.35;;
53903;SDS011;39812;52.430;16.936;2023-02-15T03:34:32;79.47;;;30.38;;
53903;SDS011;39812;52.430;16.936;2023-02-15T03:37:23;82.30;;;30.70;;
53903;SDS011;39812;52.430;16.936;2023-02-15T03:39:52;77.13;;;28.55;;
53903;SDS011;39812;52.430;16.936;2023-02-15T03:47:34;82.95;;;32.10;;
53903;SDS011;39812;52.430;16.936;2023-02-15T03:52:54;78.35;;;30.00;;
53903;SDS011;39812;52.430;16.936;2023-02-15T03:55:22;82.95;;;29.30;;
53903;SDS011;39812;52.430;16.936;2023-02-15T03:57:48;78.53;;;28.95;;
53903;SDS011;39812;52.430;16.936;2023-02-15T04:00:34;83.05;;;33.38;;
53903;SDS011;39812;52.430;16.936;2023-02-15T04:05:49;83.40;;;31.08;;
53903;SDS011;39812;52.430;16.936;2023-02-15T04:08:16;90.57;;;33.33;;
53903;SDS011;39812;52.430;16.936;2023-02-15T04:10:41;86.43;;;30.60;;
53903;SDS011;39812;52.430;16.936;2023-02-15T04:13:24;77.05;;;30.70;;
53903;SDS011;39812;52.430;16.936;2023-02-15T04:15:56;88.90;;;32.28;;
53903;SDS011;39812;52.430;16.936;2023-02-15T04:18:32;85.07;;;31.00;;
53903;SDS011;39812;52.430;16.936;2023-02-15T04:21:18;93.22;;;33.53;;
53903;SDS011;39812;52.430;16.936;2023-02-15T04:24:03;77.45;;;32.03;;
53903;SDS011;39812;52.430;16.936;2023-02-15T04:26:48;70.95;;;29.60;;
53903;SDS011;39812;52.430;16.936;2023-02-15T04:29:16;86.65;;;33.20;;
53903;SDS011;39812;52.430;16.936;2023-02-15T04:31:42;86.57;;;30.00;;
53903;SDS011;39812;52.430;16.936;2023-02-15T04:34:08;81.03;;;32.40;;
53903;SDS011;39812;52.430;16.936;2023-02-15T04:36:34;80.75;;;33.08;;
53903;SDS011;39812;52.430;16.936;2023-02-15T04:39:00;78.57;;;31.08;;
53903;SDS011;39812;52.430;16.936;2023-02-15T04:41:25;79.30;;;31.40;;
53903;SDS011;39812;52.430;16.936;2023-02-15T04:43:51;80.22;;;31.30;;
53903;SDS011;39812;52.430;16.936;2023-02-15T04:46:17;88.80;;;31.63;;
53903;SDS011;39812;52.430;16.936;2023-02-15T04:48:42;86.57;;;34.17;;
53903;SDS011;39812;52.430;16.936;2023-02-15T04:51:08;83.57;;;32.80;;
53903;SDS011;39812;52.430;16.936;2023-02-15T04:53:34;76.57;;;30.10;;
53903;SDS011;39812;52.430;16.936;2023-02-15T04:56:00;79.35;;;31.25;;
53903;SDS011;39812;52.430;16.936;2023-02-15T04:58:26;88.28;;;31.30;;
53903;SDS011;39812;52.430;16.936;2023-02-15T05:00:54;94.95;;;33.95;;
53903;SDS011;39812;52.430;16.936;2023-02-15T05:03:21;85.25;;;30.45;;
53903;SDS011;39812;52.430;16.936;2023-02-15T05:05:47;86.32;;;32.10;;
53903;SDS011;39812;52.430;16.936;2023-02-15T05:08:13;85.97;;;31.80;;
53903;SDS011;39812;52.430;16.936;2023-02-15T05:10:38;91.97;;;29.90;;
53903;SDS011;39812;52.430;16.936;2023-02-15T05:13:04;78.45;;;29.67;;
53903;SDS011;39812;52.430;16.936;2023-02-15T05:15:30;68.53;;;28.77;;
53903;SDS011;39812;52.430;16.936;2023-02-15T05:17:56;72.55;;;28.90;;
53903;SDS011;39812;52.430;16.936;2023-02-15T05:20:21;70.13;;;27.98;;
53903;SDS011;39812;52.430;16.936;2023-02-15T05:22:47;74.65;;;27.25;;
53903;SDS011;39812;52.430;16.936;2023-02-15T05:25:13;74.43;;;27.77;;
53903;SDS011;39812;52.430;16.936;2023-02-15T05:27:57;71.47;;;28.58;;
53903;SDS011;39812;52.430;16.936;2023-02-15T05:30:41;75.30;;;29.60;;
53903;SDS011;39812;52.430;16.936;2023-02-15T05:33:07;73.45;;;28.92;;
53903;SDS011;39812;52.430;16.936;2023-02-15T05:35:34;75.30;;;28.85;;
53903;SDS011;39812;52.430;16.936;2023-02-15T05:38:00;82.88;;;28.05;;
53903;SDS011;39812;52.430;16.936;2023-02-15T05:40:25;68.88;;;27.80;;
53903;SDS011;39812;52.430;16.936;2023-02-15T05:42:51;78.35;;;26.63;;
53903;SDS011;39812;52.430;16.936;2023-02-15T05:45:17;67.03;;;26.38;;
53903;SDS011;39812;52.430;16.936;2023-02-15T05:47:43;70.82;;;27.05;;
53903;SDS011;39812;52.430;16.936;2023-02-15T05:50:09;60.58;;;26.75;;
53903;SDS011;39812;52.430;16.936;2023-02-15T05:52:36;74.30;;;29.73;;
53903;SDS011;39812;52.430;16.936;2023-02-15T05:55:02;70.00;;;26.15;;
53903;SDS011;39812;52.430;16.936;2023-02-15T05:57:29;63.92;;;25.63;;
53903;SDS011;39812;52.430;16.936;2023-02-15T05:59:55;69.78;;;27.35;;
53903;SDS011;39812;52.430;16.936;2023-02-15T06:02:20;73.72;;;29.00;;
53903;SDS011;39812;52.430;16.936;2023-02-15T06:04:46;60.83;;;25.58;;
53903;SDS011;39812;52.430;16.936;2023-02-15T06:07:12;69.38;;;25.88;;
53903;SDS011;39812;52.430;16.936;2023-02-15T06:09:37;81.85;;;28.45;;
53903;SDS011;39812;52.430;16.936;2023-02-15T06:12:03;76.90;;;27.30;;
53903;SDS011;39812;52.430;16.936;2023-02-15T06:14:29;82.60;;;28.55;;
53903;SDS011;39812;52.430;16.936;2023-02-15T06:16:54;77.28;;;28.60;;
53903;SDS011;39812;52.430;16.936;2023-02-15T06:19:20;82.63;;;30.98;;
53903;SDS011;39812;52.430;16.936;2023-02-15T06:21:47;74.88;;;30.75;;
53903;SDS011;39812;52.430;16.936;2023-02-15T06:24:13;67.95;;;27.58;;
53903;SDS011;39812;52.430;16.936;2023-02-15T06:26:39;70.28;;;27.30;;
53903;SDS011;39812;52.430;16.936;2023-02-15T06:29:04;74.63;;;29.23;;
53903;SDS011;39812;52.430;16.936;2023-02-15T06:31:30;74.70;;;27.75;;
53903;SDS011;39812;52.430;16.936;2023-02-15T06:33:56;64.97;;;26.40;;
53903;SDS011;39812;52.430;16.936;2023-02-15T06:36:31;73.70;;;28.58;;
53903;SDS011;39812;52.430;16.936;2023-02-15T06:38:57;70.72;;;28.10;;
53903;SDS011;39812;52.430;16.936;2023-02-15T06:41:22;77.07;;;30.67;;
53903;SDS011;39812;52.430;16.936;2023-02-15T06:43:48;85.13;;;29.10;;
53903;SDS011;39812;52.430;16.936;2023-02-15T06:46:14;70.28;;;27.10;;
53903;SDS011;39812;52.430;16.936;2023-02-15T06:48:40;88.47;;;29.88;;
53903;SDS011;39812;52.430;16.936;2023-02-15T06:51:06;87.60;;;31.98;;
53903;SDS011;39812;52.430;16.936;2023-02-15T06:53:32;75.53;;;29.42;;
53903;SDS011;39812;52.430;16.936;2023-02-15T06:56:04;77.90;;;28.08;;
53903;SDS011;39812;52.430;16.936;2023-02-15T06:58:33;85.07;;;32.00;;
53903;SDS011;39812;52.430;16.936;2023-02-15T07:01:03;77.43;;;29.17;;
53903;SDS011;39812;52.430;16.936;2023-02-15T07:03:30;86.40;;;33.25;;
53903;SDS011;39812;52.430;16.936;2023-02-15T07:05:59;86.60;;;32.38;;
53903;SDS011;39812;52.430;16.936;2023-02-15T07:08:26;80.63;;;33.55;;
53903;SDS011;39812;52.430;16.936;2023-02-15T07:10:53;89.53;;;33.67;;
53903;SDS011;39812;52.430;16.936;2023-02-15T07:13:20;91.38;;;34.15;;
53903;SDS011;39812;52.430;16.936;2023-02-15T07:15:46;90.95;;;34.85;;
53903;SDS011;39812;52.430;16.936;2023-02-15T07:18:12;98.18;;;34.70;;
53903;SDS011;39812;52.430;16.936;2023-02-15T07:20:38;95.07;;;35.03;;
53903;SDS011;39812;52.430;16.936;2023-02-15T07:23:06;90.35;;;32.15;;
53903;SDS011;39812;52.430;16.936;2023-02-15T07:25:33;107.72;;;35.15;;
53903;SDS011;39812;52.430;16.936;2023-02-15T07:28:00;81.30;;;34.17;;
53903;SDS011;39812;52.430;16.936;2023-02-15T07:30:27;96.32;;;34.83;;
53903;SDS011;39812;52.430;16.936;2023-02-15T07:32:59;85.00;;;34.88;;
53903;SDS011;39812;52.430;16.936;2023-02-15T07:35:50;91.57;;;35.35;;
53903;SDS011;39812;52.430;16.936;2023-02-15T07:38:18;92.72;;;35.10;;
53903;SDS011;39812;52.430;16.936;2023-02-15T07:40:44;90.68;;;33.25;;
53903;SDS011;39812;52.430;16.936;2023-02-15T07:43:10;88.43;;;34.75;;
53903;SDS011;39812;52.430;16.936;2023-02-15T07:45:36;85.43;;;34.67;;
53903;SDS011;39812;52.430;16.936;2023-02-15T07:48:03;89.95;;;33.88;;
53903;SDS011;39812;52.430;16.936;2023-02-15T07:50:29;86.70;;;35.22;;
53903;SDS011;39812;52.430;16.936;2023-02-15T07:52:56;81.20;;;34.08;;
53903;SDS011;39812;52.430;16.936;2023-02-15T07:55:22;91.57;;;37.58;;
53903;SDS011;39812;52.430;16.936;2023-02-15T07:57:48;75.63;;;31.48;;
53903;SDS011;39812;52.430;16.936;2023-02-15T08:00:16;80.68;;;34.35;;
53903;SDS011;39812;52.430;16.936;2023-02-15T08:02:50;88.97;;;34.42;;
53903;SDS011;39812;52.430;16.936;2023-02-15T08:05:36;83.60;;;33.40;;
53903;SDS011;39812;52.430;16.936;2023-02-15T08:08:03;78.57;;;31.05;;
53903;SDS011;39812;52.430;16.936;2023-02-15T08:10:28;76.35;;;33.55;;
53903;SDS011;39812;52.430;16.936;2023-02-15T08:13:12;73.57;;;32.72;;
53903;SDS011;39812;52.430;16.936;2023-02-15T08:15:38;76.95;;;29.98;;
53903;SDS011;39812;52.430;16.936;2023-02-15T08:18:04;85.25;;;32.17;;
53903;SDS011;39812;52.430;16.936;2023-02-15T08:20:30;92.05;;;34.17;;
53903;SDS011;39812;52.430;16.936;2023-02-15T08:22:56;82.82;;;34.80;;
53903;SDS011;39812;52.430;16.936;2023-02-15T08:25:21;85.68;;;33.40;;
53903;SDS011;39812;52.430;16.936;2023-02-15T08:27:47;72.13;;;31.92;;
53903;SDS011;39812;52.430;16.936;2023-02-15T08:30:14;83.47;;;36.00;;
53903;SDS011;39812;52.430;16.936;2023-02-15T08:32:39;78.63;;;32.80;;
53903;SDS011;39812;52.430;16.936;2023-02-15T08:35:05;82.25;;;34.78;;
53903;SDS011;39812;52.430;16.936;2023-02-15T08:37:31;77.72;;;30.13;;
53903;SDS011;39812;52.430;16.936;2023-02-15T08:39:57;83.00;;;33.97;;
53903;SDS011;39812;52.430;16.936;2023-02-15T08:42:22;80.25;;;32.67;;
53903;SDS011;39812;52.430;16.936;2023-02-15T08:44:48;68.88;;;31.52;;
53903;SDS011;39812;52.430;16.936;2023-02-15T08:47:15;70.45;;;30.98;;
53903;SDS011;39812;52.430;16.936;2023-02-15T08:49:41;65.63;;;28.60;;
53903;SDS011;39812;52.430;16.936;2023-02-15T08:52:06;76.10;;;30.25;;
53903;SDS011;39812;52.430;16.936;2023-02-15T08:54:32;59.35;;;26.67;;
53903;SDS011;39812;52.430;16.936;2023-02-15T08:56:58;60.20;;;26.70;;
53903;SDS011;39812;52.430;16.936;2023-02-15T08:59:24;55.40;;;26.73;;
53903;SDS011;39812;52.430;16.936;2023-02-15T09:01:52;59.70;;;26.25;;
53903;SDS011;39812;52.430;16.936;2023-02-15T09:04:19;52.40;;;24.90;;
53903;SDS011;39812;52.430;16.936;2023-02-15T09:06:46;60.17;;;26.67;;
53903;SDS011;39812;52.430;16.936;2023-02-15T09:09:13;57.22;;;24.05;;
53903;SDS011;39812;52.430;16.936;2023-02-15T09:11:40;54.45;;;23.98;;
53903;SDS011;39812;52.430;16.936;2023-02-15T09:14:12;57.33;;;26.00;;
53903;SDS011;39812;52.430;16.936;2023-02-15T09:16:40;52.47;;;23.73;;
53903;SDS011;39812;52.430;16.936;2023-02-15T09:19:13;58.15;;;22.98;;
53903;SDS011;39812;52.430;16.936;2023-02-15T09:21:39;53.72;;;23.83;;
53903;SDS011;39812;52.430;16.936;2023-02-15T09:24:07;53.88;;;24.17;;
53903;SDS011;39812;52.430;16.936;2023-02-15T09:26:35;53.72;;;24.48;;
53903;SDS011;39812;52.430;16.936;2023-02-15T09:29:04;51.58;;;24.20;;
53903;SDS011;39812;52.430;16.936;2023-02-15T09:31:31;51.75;;;22.17;;
53903;SDS011;39812;52.430;16.936;2023-02-15T09:34:00;46.55;;;20.80;;
53903;SDS011;39812;52.430;16.936;2023-02-15T09:36:30;52.05;;;23.77;;
53903;SDS011;39812;52.430;16.936;2023-02-15T09:44:29;51.60;;;23.75;;
53903;SDS011;39812;52.430;16.936;2023-02-15T09:50:12;50.13;;;23.65;;
53903;SDS011;39812;52.430;16.936;2023-02-15T09:56:06;44.45;;;22.50;;
53903;SDS011;39812;52.430;16.936;2023-02-15T10:09:39;49.35;;;21.65;;
53903;SDS011;39812;52.430;16.936;2023-02-15T10:12:28;45.22;;;21.73;;
53903;SDS011;39812;52.430;16.936;2023-02-15T10:20:10;47.80;;;22.15;;
53903;SDS011;39812;52.430;16.936;2023-02-15T10:28:23;45.80;;;20.13;;
53903;SDS011;39812;52.430;16.936;2023-02-15T10:31:17;44.30;;;20.92;;
53903;SDS011;39812;52.430;16.936;2023-02-15T10:33:56;47.55;;;20.33;;
53903;SDS011;39812;52.430;16.936;2023-02-15T10:36:56;52.63;;;21.08;;
53903;SDS011;39812;52.430;16.936;2023-02-15T10:42:22;49.53;;;20.88;;
53903;SDS011;39812;52.430;16.936;2023-02-15T10:44:56;43.15;;;19.77;;
53903;SDS011;39812;52.430;16.936;2023-02-15T10:55:37;40.88;;;20.05;;
53903;SDS011;39812;52.430;16.936;2023-02-15T11:03:41;45.92;;;20.42;;
53903;SDS011;39812;52.430;16.936;2023-02-15T11:06:30;45.03;;;20.83;;
53903;SDS011;39812;52.430;16.936;2023-02-15T11:09:08;46.47;;;21.10;;
53903;SDS011;39812;52.430;16.936;2023-02-15T11:11:36;45.45;;;21.25;;
53903;SDS011;39812;52.430;16.936;2023-02-15T11:14:13;46.80;;;20.88;;
53903;SDS011;39812;52.430;16.936;2023-02-15T11:16:46;46.05;;;20.75;;
53903;SDS011;39812;52.430;16.936;2023-02-15T11:21:59;45.47;;;20.75;;
53903;SDS011;39812;52.430;16.936;2023-02-15T11:24:37;48.08;;;22.08;;
53903;SDS011;39812;52.430;16.936;2023-02-15T11:29:58;44.80;;;20.85;;
53903;SDS011;39812;52.430;16.936;2023-02-15T11:32:39;51.08;;;22.02;;
53903;SDS011;39812;52.430;16.936;2023-02-15T11:37:37;50.75;;;22.83;;
53903;SDS011;39812;52.430;16.936;2023-02-15T11:42:49;45.08;;;21.45;;
53903;SDS011;39812;52.430;16.936;2023-02-15T11:45:21;46.53;;;21.85;;
53903;SDS011;39812;52.430;16.936;2023-02-15T11:47:55;49.53;;;23.17;;
53903;SDS011;39812;52.430;16.936;2023-02-15T11:50:26;54.17;;;22.88;;
53903;SDS011;39812;52.430;16.936;2023-02-15T11:53:01;47.45;;;20.67;;
53903;SDS011;39812;52.430;16.936;2023-02-15T11:55:30;47.40;;;22.00;;
53903;SDS011;39812;52.430;16.936;2023-02-15T12:06:36;47.30;;;22.65;;
53903;SDS011;39812;52.430;16.936;2023-02-15T12:11:58;43.97;;;21.95;;
53903;SDS011;39812;52.430;16.936;2023-02-15T12:14:54;40.35;;;20.52;;
53903;SDS011;39812;52.430;16.936;2023-02-15T12:17:21;44.67;;;23.33;;
53903;SDS011;39812;52.430;16.936;2023-02-15T12:19:50;42.92;;;23.25;;
53903;SDS011;39812;52.430;16.936;2023-02-15T12:22:28;43.08;;;22.73;;
53903;SDS011;39812;52.430;16.936;2023-02-15T12:24:58;49.95;;;24.48;;
53903;SDS011;39812;52.430;16.936;2023-02-15T12:27:26;41.38;;;22.77;;
53903;SDS011;39812;52.430;16.936;2023-02-15T12:30:01;45.95;;;23.33;;
53903;SDS011;39812;52.430;16.936;2023-02-15T12:32:36;41.67;;;23.27;;
53903;SDS011;39812;52.430;16.936;2023-02-15T12:35:35;44.65;;;24.23;;
53903;SDS011;39812;52.430;16.936;2023-02-15T12:40:34;44.03;;;24.05;;
53903;SDS011;39812;52.430;16.936;2023-02-15T12:43:00;43.17;;;24.67;;
53903;SDS011;39812;52.430;16.936;2023-02-15T12:45:33;40.13;;;23.25;;
53903;SDS011;39812;52.430;16.936;2023-02-15T12:50:42;39.00;;;23.52;;
53903;SDS011;39812;52.430;16.936;2023-02-15T12:53:20;42.17;;;23.05;;
53903;SDS011;39812;52.430;16.936;2023-02-15T12:55:58;45.00;;;25.20;;
53903;SDS011;39812;52.430;16.936;2023-02-15T12:58:35;41.72;;;22.42;;
53903;SDS011;39812;52.430;16.936;2023-02-15T13:03:34;41.25;;;23.58;;
53903;SDS011;39812;52.430;16.936;2023-02-15T13:06:02;43.08;;;24.60;;
53903;SDS011;39812;52.430;16.936;2023-02-15T13:08:39;43.35;;;25.00;;
53903;SDS011;39812;52.430;16.936;2023-02-15T13:11:13;42.35;;;24.35;;
53903;SDS011;39812;52.430;16.936;2023-02-15T13:18:55;38.28;;;24.58;;
53903;SDS011;39812;52.430;16.936;2023-02-15T13:21:23;44.30;;;26.20;;
53903;SDS011;39812;52.430;16.936;2023-02-15T13:23:55;40.55;;;25.08;;
53903;SDS011;39812;52.430;16.936;2023-02-15T13:26:25;44.10;;;25.98;;
53903;SDS011;39812;52.430;16.936;2023-02-15T13:31:51;40.88;;;25.52;;
53903;SDS011;39812;52.430;16.936;2023-02-15T13:34:37;40.85;;;24.20;;
53903;SDS011;39812;52.430;16.936;2023-02-15T13:37:19;41.95;;;25.00;;
53903;SDS011;39812;52.430;16.936;2023-02-15T13:43:11;43.45;;;27.27;;
53903;SDS011;39812;52.430;16.936;2023-02-15T14:07:56;47.15;;;27.52;;
53903;SDS011;39812;52.430;16.936;2023-02-15T14:10:37;43.08;;;26.30;;
53903;SDS011;39812;52.430;16.936;2023-02-15T14:13:34;50.00;;;28.30;;
53903;SDS011;39812;52.430;16.936;2023-02-15T14:16:30;46.05;;;26.52;;
53903;SDS011;39812;52.430;16.936;2023-02-15T14:21:41;44.97;;;27.02;;
53903;SDS011;39812;52.430;16.936;2023-02-15T14:29:53;45.38;;;26.50;;
53903;SDS011;39812;52.430;16.936;2023-02-15T14:32:35;44.83;;;26.08;;
53903;SDS011;39812;52.430;16.936;2023-02-15T14:35:12;44.83;;;25.52;;
53903;SDS011;39812;52.430;16.936;2023-02-15T14:48:58;46.20;;;24.33;;
53903;SDS011;39812;52.430;16.936;2023-02-15T14:56:41;48.55;;;25.65;;
53903;SDS011;39812;52.430;16.936;2023-02-15T14:59:21;44.03;;;25.10;;
53903;SDS011;39812;52.430;16.936;2023-02-15T15:01:51;45.35;;;24.20;;
53903;SDS011;39812;52.430;16.936;2023-02-15T15:12:54;44.60;;;22.80;;
53903;SDS011;39812;52.430;16.936;2023-02-15T15:17:57;45.60;;;24.15;;
53903;SDS011;39812;52.430;16.936;2023-02-15T15:23:38;46.58;;;24.30;;
53903;SDS011;39812;52.430;16.936;2023-02-15T15:25:47;47.50;;;23.67;;
53903;SDS011;39812;52.430;16.936;2023-02-15T15:31:00;43.58;;;22.20;;
53903;SDS011;39812;52.430;16.936;2023-02-15T15:39:26;45.40;;;20.60;;
53903;SDS011;39812;52.430;16.936;2023-02-15T15:41:48;41.40;;;20.58;;
53903;SDS011;39812;52.430;16.936;2023-02-15T15:47:26;42.65;;;20.55;;
53903;SDS011;39812;52.430;16.936;2023-02-15T15:50:04;45.97;;;21.08;;
53903;SDS011;39812;52.430;16.936;2023-02-15T15:52:39;45.72;;;20.80;;
53903;SDS011;39812;52.430;16.936;2023-02-15T15:55:14;41.45;;;20.92;;
53903;SDS011;39812;52.430;16.936;2023-02-15T15:57:43;42.85;;;21.27;;
53903;SDS011;39812;52.430;16.936;2023-02-15T16:02:52;44.15;;;21.60;;
53903;SDS011;39812;52.430;16.936;2023-02-15T16:05:19;48.28;;;21.13;;
53903;SDS011;39812;52.430;16.936;2023-02-15T16:07:45;47.13;;;20.40;;
53903;SDS011;39812;52.430;16.936;2023-02-15T16:10:31;57.25;;;23.02;;
53903;SDS011;39812;52.430;16.936;2023-02-15T16:12:57;52.90;;;21.88;;
53903;SDS011;39812;52.430;16.936;2023-02-15T16:15:25;51.58;;;21.58;;
53903;SDS011;39812;52.430;16.936;2023-02-15T16:17:52;49.83;;;21.77;;
53903;SDS011;39812;52.430;16.936;2023-02-15T16:28:52;51.03;;;21.27;;
53903;SDS011;39812;52.430;16.936;2023-02-15T16:31:18;54.95;;;21.52;;
53903;SDS011;39812;52.430;16.936;2023-02-15T16:33:47;50.50;;;20.63;;
53903;SDS011;39812;52.430;16.936;2023-02-15T16:36:23;51.00;;;20.75;;
53903;SDS011;39812;52.430;16.936;2023-02-15T16:41:23;57.88;;;22.30;;
53903;SDS011;39812;52.430;16.936;2023-02-15T16:43:52;57.92;;;21.52;;
53903;SDS011;39812;52.430;16.936;2023-02-15T16:46:28;54.30;;;22.75;;
53903;SDS011;39812;52.430;16.936;2023-02-15T16:49:02;47.65;;;20.65;;
53903;SDS011;39812;52.430;16.936;2023-02-15T16:51:32;52.17;;;22.65;;
53903;SDS011;39812;52.430;16.936;2023-02-15T16:54:07;56.42;;;23.02;;
53903;SDS011;39812;52.430;16.936;2023-02-15T16:56:39;57.42;;;21.92;;
53903;SDS011;39812;52.430;16.936;2023-02-15T16:59:13;56.75;;;23.27;;
53903;SDS011;39812;52.430;16.936;2023-02-15T17:01:52;49.50;;;20.10;;
53903;SDS011;39812;52.430;16.936;2023-02-15T17:07:06;58.72;;;23.85;;
53903;SDS011;39812;52.430;16.936;2023-02-15T17:09:40;54.45;;;22.65;;
53903;SDS011;39812;52.430;16.936;2023-02-15T17:12:35;61.25;;;23.60;;
53903;SDS011;39812;52.430;16.936;2023-02-15T17:15:35;57.63;;;22.33;;
53903;SDS011;39812;52.430;16.936;2023-02-15T17:18:20;53.67;;;22.20;;
53903;SDS011;39812;52.430;16.936;2023-02-15T17:20:48;59.08;;;24.88;;
53903;SDS011;39812;52.430;16.936;2023-02-15T17:25:55;56.70;;;23.05;;
53903;SDS011;39812;52.430;16.936;2023-02-15T17:28:23;66.63;;;26.30;;
53903;SDS011;39812;52.430;16.936;2023-02-15T17:30:51;57.30;;;24.40;;
53903;SDS011;39812;52.430;16.936;2023-02-15T17:33:39;53.33;;;22.50;;
53903;SDS011;39812;52.430;16.936;2023-02-15T17:38:37;59.75;;;23.95;;
53903;SDS011;39812;52.430;16.936;2023-02-15T17:41:04;61.03;;;24.60;;
53903;SDS011;39812;52.430;16.936;2023-02-15T17:43:29;59.53;;;24.33;;
53903;SDS011;39812;52.430;16.936;2023-02-15T17:45:56;57.83;;;24.25;;
53903;SDS011;39812;52.430;16.936;2023-02-15T17:50:56;55.17;;;23.77;;
53903;SDS011;39812;52.430;16.936;2023-02-15T17:53:23;59.28;;;24.33;;
53903;SDS011;39812;52.430;16.936;2023-02-15T17:55:49;58.28;;;25.08;;
53903;SDS011;39812;52.430;16.936;2023-02-15T17:58:16;56.85;;;24.75;;
53903;SDS011;39812;52.430;16.936;2023-02-15T18:00:50;61.50;;;24.13;;
53903;SDS011;39812;52.430;16.936;2023-02-15T18:03:50;54.75;;;21.55;;
53903;SDS011;39812;52.430;16.936;2023-02-15T18:06:37;56.97;;;22.90;;
53903;SDS011;39812;52.430;16.936;2023-02-15T18:09:23;58.67;;;22.98;;
53903;SDS011;39812;52.430;16.936;2023-02-15T18:12:17;58.88;;;23.10;;